sensor_id;sensor_type;location;lat;lon;timestamp;pressure;altitude;pressure_sealevel;temperature;humidity
42727;BME280;28372;56.832;60.658;2023-03-25T00:01:56;96791.50;;;8.80;43.96
42727;BME280;28372;56.832;60.658;2023-03-25T00:04:24;96791.09;;;8.81;44.60
42727;BME280;28372;56.832;60.658;2023-03-25T00:06:53;96788.41;;;8.81;42.49
42727;BME280;28372;56.832;60.658;2023-03-25T00:09:22;96784.94;;;8.84;41.48
42727;BME280;28372;56.832;60.658;2023-03-25T00:11:49;96781.47;;;8.80;44.98
42727;BME280;28372;56.832;60.658;2023-03-25T00:14:16;96778.78;;;8.84;42.20
42727;BME280;28372;56.832;60.658;2023-03-25T00:16:45;96778.41;;;8.85;42.30
42727;BME280;28372;56.832;60.658;2023-03-25T00:19:14;96773.00;;;8.89;40.92
42727;BME280;28372;56.832;60.658;2023-03-25T00:21:42;96778.38;;;8.96;40.33
42727;BME280;28372;56.832;60.658;2023-03-25T00:24:11;96779.16;;;9.04;40.13
42727;BME280;28372;56.832;60.658;2023-03-25T00:26:44;96761.81;;;9.16;40.46
42727;BME280;28372;56.832;60.658;2023-03-25T00:29:11;96764.91;;;9.14;41.45
42727;BME280;28372;56.832;60.658;2023-03-25T00:31:39;96767.63;;;9.11;40.82
42727;BME280;28372;56.832;60.658;2023-03-25T00:34:06;96764.53;;;9.12;40.33
42727;BME280;28372;56.832;60.658;2023-03-25T00:36:34;96760.69;;;9.13;39.68
42727;BME280;28372;56.832;60.658;2023-03-25T00:39:04;96756.03;;;9.17;39.94
42727;BME280;28372;56.832;60.658;2023-03-25T00:41:31;96749.47;;;9.29;40.31
42727;BME280;28372;56.832;60.658;2023-03-25T00:44:03;96755.66;;;9.26;40.55
42727;BME280;28372;56.832;60.658;2023-03-25T00:46:31;96761.81;;;9.30;39.80
42727;BME280;28372;56.832;60.658;2023-03-25T00:48:59;96756.41;;;9.26;39.98
42727;BME280;28372;56.832;60.658;2023-03-25T00:51:27;96753.72;;;9.30;40.90
42727;BME280;28372;56.832;60.658;2023-03-25T00:53:57;96753.31;;;9.28;39.91
42727;BME280;28372;56.832;60.658;2023-03-25T00:56:28;96751.78;;;9.31;40.20
42727;BME280;28372;56.832;60.658;2023-03-25T00:58:56;96747.94;;;9.32;40.37
42727;BME280;28372;56.832;60.658;2023-03-25T01:01:24;96752.16;;;9.33;39.74
42727;BME280;28372;56.832;60.658;2023-03-25T01:03:56;96742.13;;;9.30;41.54
42727;BME280;28372;56.832;60.658;2023-03-25T01:06:26;96739.44;;;9.30;40.82
42727;BME280;28372;56.832;60.658;2023-03-25T01:08:58;96741.75;;;9.38;40.72
42727;BME280;28372;56.832;60.658;2023-03-25T01:11:30;96742.53;;;9.32;42.57
42727;BME280;28372;56.832;60.658;2023-03-25T01:14:01;96741.00;;;9.31;40.38
42727;BME280;28372;56.832;60.658;2023-03-25T01:16:29;96743.28;;;9.32;40.72
42727;BME280;28372;56.832;60.658;2023-03-25T01:18:56;96733.66;;;9.24;41.99
42727;BME280;28372;56.832;60.658;2023-03-25T01:21:24;96723.63;;;9.39;40.95
42727;BME280;28372;56.832;60.658;2023-03-25T01:23:51;96730.19;;;9.41;41.16
42727;BME280;28372;56.832;60.658;2023-03-25T01:26:19;96726.31;;;9.39;40.75
42727;BME280;28372;56.832;60.658;2023-03-25T01:28:46;96734.03;;;9.37;40.75
42727;BME280;28372;56.832;60.658;2023-03-25T01:31:13;96734.06;;;9.26;41.72
42727;BME280;28372;56.832;60.658;2023-03-25T01:33:41;96725.56;;;9.24;40.97
42727;BME280;28372;56.832;60.658;2023-03-25T01:36:09;96733.28;;;9.22;40.89
42727;BME280;28372;56.832;60.658;2023-03-25T01:38:39;96729.44;;;9.19;42.36
42727;BME280;28372;56.832;60.658;2023-03-25T01:41:07;96729.03;;;9.17;42.28
42727;BME280;28372;56.832;60.658;2023-03-25T01:43:35;96725.22;;;9.11;42.18
42727;BME280;28372;56.832;60.658;2023-03-25T01:46:02;96732.50;;;9.25;41.06
42727;BME280;28372;56.832;60.658;2023-03-25T01:49:13;96727.50;;;9.34;41.08
42727;BME280;28372;56.832;60.658;2023-03-25T01:52:00;96719.78;;;9.36;41.38
42727;BME280;28372;56.832;60.658;2023-03-25T01:54:29;96713.56;;;9.47;41.53
42727;BME280;28372;56.832;60.658;2023-03-25T01:56:57;96719.75;;;9.43;41.40
42727;BME280;28372;56.832;60.658;2023-03-25T02:00:20;96710.50;;;9.45;41.52
42727;BME280;28372;56.832;60.658;2023-03-25T02:03:33;96707.81;;;9.45;41.41
42727;BME280;28372;56.832;60.658;2023-03-25T02:07:18;96698.19;;;9.33;41.29
42727;BME280;28372;56.832;60.658;2023-03-25T02:09:46;96695.47;;;9.33;41.31
42727;BME280;28372;56.832;60.658;2023-03-25T02:12:13;96697.06;;;9.30;41.45
42727;BME280;28372;56.832;60.658;2023-03-25T02:14:42;96693.97;;;9.28;41.24
42727;BME280;28372;56.832;60.658;2023-03-25T02:17:27;96696.28;;;9.33;42.04
42727;BME280;28372;56.832;60.658;2023-03-25T02:28:54;96691.25;;;9.35;42.08
42727;BME280;28372;56.832;60.658;2023-03-25T02:37:27;96683.88;;;9.54;41.90
42727;BME280;28372;56.832;60.658;2023-03-25T02:40:04;96683.06;;;9.60;41.97
42727;BME280;28372;56.832;60.658;2023-03-25T02:42:38;96676.09;;;9.67;42.29
42727;BME280;28372;56.832;60.658;2023-03-25T02:50:59;96662.00;;;10.11;42.08
42727;BME280;28372;56.832;60.658;2023-03-25T02:53:29;96668.03;;;10.26;42.20
42727;BME280;28372;56.832;60.658;2023-03-25T02:56:01;96668.69;;;10.49;41.25
42727;BME280;28372;56.832;60.658;2023-03-25T02:58:51;96669.69;;;10.69;42.11
42727;BME280;28372;56.832;60.658;2023-03-25T03:01:28;96670.22;;;10.95;41.27
42727;BME280;28372;56.832;60.658;2023-03-25T03:03:55;96669.22;;;11.20;41.33
42727;BME280;28372;56.832;60.658;2023-03-25T03:06:23;96664.69;;;11.44;40.54
42727;BME280;28372;56.832;60.658;2023-03-25T03:09:13;96667.56;;;11.64;40.67
42727;BME280;28372;56.832;60.658;2023-03-25T03:14:27;96665.75;;;12.15;40.32
42727;BME280;28372;56.832;60.658;2023-03-25T03:19:47;96659.94;;;12.68;39.94
42727;BME280;28372;56.832;60.658;2023-03-25T03:22:22;96665.31;;;12.92;39.98
42727;BME280;28372;56.832;60.658;2023-03-25T03:27:42;96656.81;;;13.33;39.05
42727;BME280;28372;56.832;60.658;2023-03-25T03:35:32;96657.56;;;13.94;38.71
42727;BME280;28372;56.832;60.658;2023-03-25T03:38:06;96654.97;;;14.07;38.68
42727;BME280;28372;56.832;60.658;2023-03-25T03:40:35;96642.91;;;14.25;38.46
42727;BME280;28372;56.832;60.658;2023-03-25T03:43:09;96647.19;;;14.42;38.05
42727;BME280;28372;56.832;60.658;2023-03-25T03:45:41;96652.97;;;14.61;38.08
42727;BME280;28372;56.832;60.658;2023-03-25T03:48:15;96645.50;;;14.81;37.98
42727;BME280;28372;56.832;60.658;2023-03-25T03:50:45;96643.41;;;15.02;37.72
42727;BME280;28372;56.832;60.658;2023-03-25T03:53:19;96638.81;;;15.28;37.80
42727;BME280;28372;56.832;60.658;2023-03-25T03:55:51;96635.59;;;15.46;37.35
42727;BME280;28372;56.832;60.658;2023-03-25T03:58:27;96631.50;;;15.67;37.26
42727;BME280;28372;56.832;60.658;2023-03-25T04:01:06;96631.13;;;15.95;36.40
42727;BME280;28372;56.832;60.658;2023-03-25T04:06:14;96612.44;;;16.44;35.66
42727;BME280;28372;56.832;60.658;2023-03-25T04:08:59;96613.06;;;16.61;34.65
42727;BME280;28372;56.832;60.658;2023-03-25T04:11:36;96611.94;;;16.72;35.90
42727;BME280;28372;56.832;60.658;2023-03-25T04:14:06;96605.72;;;16.71;35.08
42727;BME280;28372;56.832;60.658;2023-03-25T04:16:35;96612.91;;;16.78;36.01
42727;BME280;28372;56.832;60.658;2023-03-25T04:19:04;96609.06;;;16.88;35.83
42727;BME280;28372;56.832;60.658;2023-03-25T04:21:31;96609.91;;;16.98;35.66
42727;BME280;28372;56.832;60.658;2023-03-25T04:23:59;96613.63;;;17.04;35.34
42727;BME280;28372;56.832;60.658;2023-03-25T04:26:27;96610.88;;;17.04;34.96
42727;BME280;28372;56.832;60.658;2023-03-25T04:29:00;96618.94;;;17.08;34.93
42727;BME280;28372;56.832;60.658;2023-03-25T04:31:28;96620.03;;;17.10;34.70
42727;BME280;28372;56.832;60.658;2023-03-25T04:33:57;96620.97;;;17.17;34.20
42727;BME280;28372;56.832;60.658;2023-03-25T04:36:25;96620.94;;;17.29;34.05
42727;BME280;28372;56.832;60.658;2023-03-25T04:38:55;96616.34;;;17.49;34.50
42727;BME280;28372;56.832;60.658;2023-03-25T04:41:22;96614.66;;;17.73;33.85
42727;BME280;28372;56.832;60.658;2023-03-25T04:43:50;96614.38;;;18.03;33.36
42727;BME280;28372;56.832;60.658;2023-03-25T04:46:17;96604.13;;;18.35;32.95
42727;BME280;28372;56.832;60.658;2023-03-25T04:48:44;96615.00;;;18.66;33.82
42727;BME280;28372;56.832;60.658;2023-03-25T04:51:13;96609.13;;;18.95;34.08
42727;BME280;28372;56.832;60.658;2023-03-25T04:53:41;96605.72;;;19.28;33.97
42727;BME280;28372;56.832;60.658;2023-03-25T04:56:11;96608.28;;;19.60;32.58
42727;BME280;28372;56.832;60.658;2023-03-25T04:58:42;96598.59;;;19.92;33.39
42727;BME280;28372;56.832;60.658;2023-03-25T05:01:28;96601.81;;;20.24;31.09
42727;BME280;28372;56.832;60.658;2023-03-25T05:03:58;96600.53;;;20.59;33.19
42727;BME280;28372;56.832;60.658;2023-03-25T05:06:33;96604.06;;;20.83;33.48
42727;BME280;28372;56.832;60.658;2023-03-25T05:09:01;96598.53;;;21.08;32.42
42727;BME280;28372;56.832;60.658;2023-03-25T05:11:31;96606.44;;;21.30;32.41
42727;BME280;28372;56.832;60.658;2023-03-25T05:13:58;96590.50;;;21.49;30.48
42727;BME280;28372;56.832;60.658;2023-03-25T05:16:26;96598.41;;;21.71;30.41
42727;BME280;28372;56.832;60.658;2023-03-25T05:18:53;96597.75;;;21.91;29.15
42727;BME280;28372;56.832;60.658;2023-03-25T05:21:20;96594.47;;;22.07;30.87
42727;BME280;28372;56.832;60.658;2023-03-25T05:23:48;96595.66;;;22.21;31.92
42727;BME280;28372;56.832;60.658;2023-03-25T05:26:15;96581.59;;;22.34;26.86
42727;BME280;28372;56.832;60.658;2023-03-25T05:28:42;96581.00;;;22.45;26.15
42727;BME280;28372;56.832;60.658;2023-03-25T05:31:09;96583.88;;;22.56;28.48
42727;BME280;28372;56.832;60.658;2023-03-25T05:33:37;96581.56;;;22.70;27.21
42727;BME280;28372;56.832;60.658;2023-03-25T05:36:09;96577.97;;;22.84;30.31
42727;BME280;28372;56.832;60.658;2023-03-25T05:38:38;96581.38;;;23.00;29.01
42727;BME280;28372;56.832;60.658;2023-03-25T05:41:08;96586.63;;;23.18;30.62
42727;BME280;28372;56.832;60.658;2023-03-25T05:43:43;96573.00;;;23.35;30.23
42727;BME280;28372;56.832;60.658;2023-03-25T05:46:14;96576.94;;;23.55;29.21
42727;BME280;28372;56.832;60.658;2023-03-25T05:48:41;96575.63;;;23.76;26.29
42727;BME280;28372;56.832;60.658;2023-03-25T05:51:15;96573.56;;;24.03;26.04
42727;BME280;28372;56.832;60.658;2023-03-25T05:53:44;96571.72;;;24.32;29.32
42727;BME280;28372;56.832;60.658;2023-03-25T05:56:16;96572.66;;;24.61;24.66
42727;BME280;28372;56.832;60.658;2023-03-25T05:58:44;96565.72;;;24.94;28.19
42727;BME280;28372;56.832;60.658;2023-03-25T06:01:11;96578.13;;;25.21;28.38
42727;BME280;28372;56.832;60.658;2023-03-25T06:03:58;96566.09;;;25.41;28.97
42727;BME280;28372;56.832;60.658;2023-03-25T06:06:30;96563.81;;;25.68;25.06
42727;BME280;28372;56.832;60.658;2023-03-25T06:09:00;96562.06;;;25.93;26.21
42727;BME280;28372;56.832;60.658;2023-03-25T06:11:28;96557.78;;;26.15;26.80
42727;BME280;28372;56.832;60.658;2023-03-25T06:13:55;96561.00;;;26.30;27.98
42727;BME280;28372;56.832;60.658;2023-03-25T06:16:23;96559.69;;;26.54;28.02
42727;BME280;28372;56.832;60.658;2023-03-25T06:18:56;96553.28;;;26.76;26.27
42727;BME280;28372;56.832;60.658;2023-03-25T06:21:31;96550.34;;;27.10;25.58
42727;BME280;28372;56.832;60.658;2023-03-25T06:23:59;96553.28;;;27.24;26.53
42727;BME280;28372;56.832;60.658;2023-03-25T06:26:29;96551.97;;;27.36;27.35
42727;BME280;28372;56.832;60.658;2023-03-25T06:28:59;96544.78;;;27.52;24.68
42727;BME280;28372;56.832;60.658;2023-03-25T06:31:28;96539.84;;;27.69;21.58
42727;BME280;28372;56.832;60.658;2023-03-25T06:34:00;96533.44;;;27.80;25.69
42727;BME280;28372;56.832;60.658;2023-03-25T06:36:27;96527.78;;;27.92;24.39
42727;BME280;28372;56.832;60.658;2023-03-25T06:38:55;96541.00;;;28.10;19.88
42727;BME280;28372;56.832;60.658;2023-03-25T06:41:24;96524.50;;;28.18;23.67
42727;BME280;28372;56.832;60.658;2023-03-25T06:44:03;96530.75;;;28.24;19.67
42727;BME280;28372;56.832;60.658;2023-03-25T06:47:09;96531.16;;;28.34;23.13
42727;BME280;28372;56.832;60.658;2023-03-25T06:49:56;96531.56;;;28.44;19.09
42727;BME280;28372;56.832;60.658;2023-03-25T06:52:24;96523.13;;;28.49;22.52
42727;BME280;28372;56.832;60.658;2023-03-25T06:54:51;96523.13;;;28.49;19.66
42727;BME280;28372;56.832;60.658;2023-03-25T06:57:18;96524.59;;;28.56;22.02
42727;BME280;28372;56.832;60.658;2023-03-25T06:59:46;96520.75;;;28.59;21.93
42727;BME280;28372;56.832;60.658;2023-03-25T07:02:14;96516.16;;;28.62;21.96
42727;BME280;28372;56.832;60.658;2023-03-25T07:04:41;96509.56;;;28.65;22.14
42727;BME280;28372;56.832;60.658;2023-03-25T07:07:08;96503.94;;;28.70;21.92
42727;BME280;28372;56.832;60.658;2023-03-25T07:09:36;96497.75;;;28.78;20.17
42727;BME280;28372;56.832;60.658;2023-03-25T07:12:03;96499.50;;;28.81;19.99
42727;BME280;28372;56.832;60.658;2023-03-25T07:14:34;96486.47;;;28.89;21.24
42727;BME280;28372;56.832;60.658;2023-03-25T07:17:02;96499.13;;;28.90;21.56
42727;BME280;28372;56.832;60.658;2023-03-25T07:19:29;96494.22;;;28.96;21.63
42727;BME280;28372;56.832;60.658;2023-03-25T07:21:56;96478.72;;;29.01;21.64
42727;BME280;28372;56.832;60.658;2023-03-25T07:24:24;96482.16;;;29.07;19.50
42727;BME280;28372;56.832;60.658;2023-03-25T07:26:51;96482.28;;;29.15;21.88
42727;BME280;28372;56.832;60.658;2023-03-25T07:29:23;96480.72;;;29.19;21.31
42727;BME280;28372;56.832;60.658;2023-03-25T07:31:50;96475.88;;;29.20;21.87
42727;BME280;28372;56.832;60.658;2023-03-25T07:34:18;96482.91;;;29.27;21.39
42727;BME280;28372;56.832;60.658;2023-03-25T07:36:45;96473.28;;;29.28;20.78
42727;BME280;28372;56.832;60.658;2023-03-25T07:39:12;96470.50;;;29.28;19.19
42727;BME280;28372;56.832;60.658;2023-03-25T07:41:40;96470.19;;;29.12;18.28
42727;BME280;28372;56.832;60.658;2023-03-25T07:44:19;96468.34;;;29.01;21.47
42727;BME280;28372;56.832;60.658;2023-03-25T07:46:48;96460.69;;;28.88;21.55
42727;BME280;28372;56.832;60.658;2023-03-25T07:49:15;96450.75;;;28.74;21.63
42727;BME280;28372;56.832;60.658;2023-03-25T07:51:43;96472.03;;;28.52;20.24
42727;BME280;28372;56.832;60.658;2023-03-25T07:54:10;96459.00;;;28.23;20.56
42727;BME280;28372;56.832;60.658;2023-03-25T07:56:37;96454.56;;;27.89;18.87
42727;BME280;28372;56.832;60.658;2023-03-25T07:59:05;96461.69;;;27.84;21.71
42727;BME280;28372;56.832;60.658;2023-03-25T08:01:32;96459.75;;;27.74;21.22
42727;BME280;28372;56.832;60.658;2023-03-25T08:03:59;96454.44;;;27.51;21.62
42727;BME280;28372;56.832;60.658;2023-03-25T08:06:27;96457.06;;;27.38;21.75
42727;BME280;28372;56.832;60.658;2023-03-25T08:08:54;96453.09;;;27.27;21.31
42727;BME280;28372;56.832;60.658;2023-03-25T08:11:21;96447.78;;;26.99;20.32
42727;BME280;28372;56.832;60.658;2023-03-25T08:13:49;96453.41;;;26.82;21.60
42727;BME280;28372;56.832;60.658;2023-03-25T08:16:16;96441.44;;;26.57;22.01
42727;BME280;28372;56.832;60.658;2023-03-25T08:18:43;96447.00;;;26.51;21.89
42727;BME280;28372;56.832;60.658;2023-03-25T08:21:19;96448.41;;;26.22;21.90
42727;BME280;28372;56.832;60.658;2023-03-25T08:23:52;96445.72;;;25.93;21.82
42727;BME280;28372;56.832;60.658;2023-03-25T08:26:24;96440.75;;;25.69;21.80
42727;BME280;28372;56.832;60.658;2023-03-25T08:28:53;96452.84;;;25.60;22.46
42727;BME280;28372;56.832;60.658;2023-03-25T08:31:24;96437.03;;;25.38;22.23
42727;BME280;28372;56.832;60.658;2023-03-25T08:33:51;96437.25;;;25.18;22.32
42727;BME280;28372;56.832;60.658;2023-03-25T08:36:19;96453.09;;;24.83;22.17
42727;BME280;28372;56.832;60.658;2023-03-25T08:38:49;96436.22;;;24.70;22.75
42727;BME280;28372;56.832;60.658;2023-03-25T08:41:16;96444.38;;;24.36;23.01
42727;BME280;28372;56.832;60.658;2023-03-25T08:43:44;96432.78;;;24.20;23.31
42727;BME280;28372;56.832;60.658;2023-03-25T08:46:11;96435.97;;;23.96;23.38
42727;BME280;28372;56.832;60.658;2023-03-25T08:48:39;96425.75;;;23.76;23.71
42727;BME280;28372;56.832;60.658;2023-03-25T08:51:06;96431.19;;;23.59;23.78
42727;BME280;28372;56.832;60.658;2023-03-25T08:53:34;96433.63;;;23.46;23.97
42727;BME280;28372;56.832;60.658;2023-03-25T08:56:01;96433.47;;;23.23;24.28
42727;BME280;28372;56.832;60.658;2023-03-25T08:58:31;96414.94;;;22.97;24.42
42727;BME280;28372;56.832;60.658;2023-03-25T09:00:58;96421.97;;;22.98;24.38
42727;BME280;28372;56.832;60.658;2023-03-25T09:03:26;96406.34;;;22.89;24.53
42727;BME280;28372;56.832;60.658;2023-03-25T09:05:53;96406.16;;;22.99;24.32
42727;BME280;28372;56.832;60.658;2023-03-25T09:08:21;96416.84;;;22.85;24.48
42727;BME280;28372;56.832;60.658;2023-03-25T09:10:48;96402.72;;;22.78;24.57
42727;BME280;28372;56.832;60.658;2023-03-25T09:13:15;96412.91;;;22.66;24.92
42727;BME280;28372;56.832;60.658;2023-03-25T09:15:44;96409.28;;;22.54;24.77
42727;BME280;28372;56.832;60.658;2023-03-25T09:18:12;96410.41;;;22.41;25.06
42727;BME280;28372;56.832;60.658;2023-03-25T09:20:42;96410.13;;;22.19;25.85
42727;BME280;28372;56.832;60.658;2023-03-25T09:23:14;96413.03;;;22.10;25.71
42727;BME280;28372;56.832;60.658;2023-03-25T09:25:41;96416.22;;;22.02;25.59
42727;BME280;28372;56.832;60.658;2023-03-25T09:28:09;96414.69;;;22.01;25.38
42727;BME280;28372;56.832;60.658;2023-03-25T09:30:36;96413.50;;;21.87;25.69
42727;BME280;28372;56.832;60.658;2023-03-25T09:33:03;96411.50;;;21.67;26.58
42727;BME280;28372;56.832;60.658;2023-03-25T09:35:31;96423.38;;;21.59;26.55
42727;BME280;28372;56.832;60.658;2023-03-25T09:37:59;96414.88;;;21.56;26.21
42727;BME280;28372;56.832;60.658;2023-03-25T09:40:26;96421.47;;;21.50;26.62
42727;BME280;28372;56.832;60.658;2023-03-25T09:47:54;96400.00;;;21.33;26.10
42727;BME280;28372;56.832;60.658;2023-03-25T09:50:22;96410.81;;;21.37;26.06
42727;BME280;28372;56.832;60.658;2023-03-25T09:52:56;96402.00;;;21.18;26.44
42727;BME280;28372;56.832;60.658;2023-03-25T09:55:29;96406.13;;;21.08;26.49
42727;BME280;28372;56.832;60.658;2023-03-25T09:58:13;96420.16;;;20.95;26.36
42727;BME280;28372;56.832;60.658;2023-03-25T10:08:57;96417.84;;;20.48;26.96
42727;BME280;28372;56.832;60.658;2023-03-25T10:18:03;96411.34;;;20.22;26.97
42727;BME280;28372;56.832;60.658;2023-03-25T10:23:25;96420.38;;;19.98;27.52
42727;BME280;28372;56.832;60.658;2023-03-25T10:25:58;96421.53;;;19.82;27.47
42727;BME280;28372;56.832;60.658;2023-03-25T10:28:30;96425.03;;;19.82;27.17
42727;BME280;28372;56.832;60.658;2023-03-25T10:30:59;96433.16;;;19.67;27.59
42727;BME280;28372;56.832;60.658;2023-03-25T10:33:33;96429.56;;;19.61;28.66
42727;BME280;28372;56.832;60.658;2023-03-25T10:36:03;96415.94;;;19.43;28.53
42727;BME280;28372;56.832;60.658;2023-03-25T10:38:32;96423.63;;;19.20;29.93
42727;BME280;28372;56.832;60.658;2023-03-25T10:43:31;96415.06;;;18.94;29.37
42727;BME280;28372;56.832;60.658;2023-03-25T10:46:04;96426.16;;;18.90;29.69
42727;BME280;28372;56.832;60.658;2023-03-25T10:48:33;96423.72;;;18.74;30.96
42727;BME280;28372;56.832;60.658;2023-03-25T10:51:09;96426.31;;;18.68;29.03
42727;BME280;28372;56.832;60.658;2023-03-25T10:53:36;96424.38;;;18.59;29.21
42727;BME280;28372;56.832;60.658;2023-03-25T10:56:16;96424.50;;;18.56;28.79
42727;BME280;28372;56.832;60.658;2023-03-25T10:58:45;96422.88;;;18.49;28.84
42727;BME280;28372;56.832;60.658;2023-03-25T11:01:15;96427.56;;;18.48;29.00
42727;BME280;28372;56.832;60.658;2023-03-25T11:03:44;96417.53;;;18.45;30.71
42727;BME280;28372;56.832;60.658;2023-03-25T11:06:25;96429.84;;;18.50;29.32
42727;BME280;28372;56.832;60.658;2023-03-25T11:09:09;96426.22;;;18.44;30.89
42727;BME280;28372;56.832;60.658;2023-03-25T11:11:40;96418.59;;;18.39;29.55
42727;BME280;28372;56.832;60.658;2023-03-25T11:14:08;96414.22;;;18.32;30.24
42727;BME280;28372;56.832;60.658;2023-03-25T11:16:41;96416.63;;;18.30;30.84
42727;BME280;28372;56.832;60.658;2023-03-25T11:19:13;96425.44;;;18.34;29.56
42727;BME280;28372;56.832;60.658;2023-03-25T11:21:44;96424.22;;;18.26;29.99
42727;BME280;28372;56.832;60.658;2023-03-25T11:24:13;96411.31;;;18.08;30.81
42727;BME280;28372;56.832;60.658;2023-03-25T11:26:40;96430.31;;;18.02;31.88
42727;BME280;28372;56.832;60.658;2023-03-25T11:29:11;96432.06;;;17.87;30.85
42727;BME280;28372;56.832;60.658;2023-03-25T11:31:39;96429.34;;;17.77;30.81
42727;BME280;28372;56.832;60.658;2023-03-25T11:36:36;96444.19;;;17.67;30.67
42727;BME280;28372;56.832;60.658;2023-03-25T11:39:15;96440.38;;;17.64;31.03
42727;BME280;28372;56.832;60.658;2023-03-25T11:41:44;96437.47;;;17.59;30.67
42727;BME280;28372;56.832;60.658;2023-03-25T11:46:49;96450.50;;;17.45;30.96
42727;BME280;28372;56.832;60.658;2023-03-25T11:49:19;96457.47;;;17.37;32.11
42727;BME280;28372;56.832;60.658;2023-03-25T11:52:02;96458.00;;;17.23;33.31
42727;BME280;28372;56.832;60.658;2023-03-25T11:54:31;96452.41;;;17.26;31.54
42727;BME280;28372;56.832;60.658;2023-03-25T11:57:02;96465.13;;;17.20;32.19
42727;BME280;28372;56.832;60.658;2023-03-25T11:59:57;96464.63;;;17.12;31.09
42727;BME280;28372;56.832;60.658;2023-03-25T12:02:21;96453.38;;;17.10;31.27
42727;BME280;28372;56.832;60.658;2023-03-25T12:04:57;96460.97;;;17.06;31.32
42727;BME280;28372;56.832;60.658;2023-03-25T12:07:27;96461.06;;;17.03;31.37
42727;BME280;28372;56.832;60.658;2023-03-25T12:09:56;96468.16;;;16.91;34.12
42727;BME280;28372;56.832;60.658;2023-03-25T12:12:38;96477.53;;;16.90;31.69
42727;BME280;28372;56.832;60.658;2023-03-25T12:23:30;96476.69;;;16.80;32.61
42727;BME280;28372;56.832;60.658;2023-03-25T12:28:28;96495.56;;;16.65;33.70
42727;BME280;28372;56.832;60.658;2023-03-25T12:47:34;96528.44;;;16.26;32.69
42727;BME280;28372;56.832;60.658;2023-03-25T12:55:17;96537.56;;;15.98;35.65
42727;BME280;28372;56.832;60.658;2023-03-25T12:57:54;96543.13;;;15.81;36.47
42727;BME280;28372;56.832;60.658;2023-03-25T13:08:17;96559.09;;;15.66;33.71
42727;BME280;28372;56.832;60.658;2023-03-25T13:10:48;96557.25;;;15.76;33.98
42727;BME280;28372;56.832;60.658;2023-03-25T13:13:18;96555.06;;;15.71;33.61
42727;BME280;28372;56.832;60.658;2023-03-25T13:16:08;96555.19;;;15.67;34.37
42727;BME280;28372;56.832;60.658;2023-03-25T13:18:39;96563.03;;;15.65;34.11
42727;BME280;28372;56.832;60.658;2023-03-25T13:24:11;96569.63;;;15.38;39.87
42727;BME280;28372;56.832;60.658;2023-03-25T13:26:37;96566.13;;;15.25;39.68
42727;BME280;28372;56.832;60.658;2023-03-25T13:32:18;96574.41;;;14.92;41.37
42727;BME280;28372;56.832;60.658;2023-03-25T13:42:25;96578.44;;;14.25;44.64
42727;BME280;28372;56.832;60.658;2023-03-25T13:44:54;96578.00;;;14.27;43.80
42727;BME280;28372;56.832;60.658;2023-03-25T13:47:28;96585.03;;;14.24;43.71
42727;BME280;28372;56.832;60.658;2023-03-25T13:50:19;96587.84;;;14.37;38.03
42727;BME280;28372;56.832;60.658;2023-03-25T13:52:50;96589.19;;;14.45;37.31
42727;BME280;28372;56.832;60.658;2023-03-25T13:55:22;96589.28;;;14.42;38.05
42727;BME280;28372;56.832;60.658;2023-03-25T14:14:02;96611.22;;;13.65;44.28
42727;BME280;28372;56.832;60.658;2023-03-25T14:16:37;96608.63;;;13.58;43.11
42727;BME280;28372;56.832;60.658;2023-03-25T14:19:07;96622.84;;;13.65;40.23
42727;BME280;28372;56.832;60.658;2023-03-25T14:24:09;96643.38;;;13.26;45.72
42727;BME280;28372;56.832;60.658;2023-03-25T14:27:21;96645.94;;;13.13;46.15
42727;BME280;28372;56.832;60.658;2023-03-25T14:29:33;96651.50;;;13.06;46.37
42727;BME280;28372;56.832;60.658;2023-03-25T14:32:37;96660.88;;;13.01;45.36
42727;BME280;28372;56.832;60.658;2023-03-25T14:37:45;96660.66;;;13.16;46.07
42727;BME280;28372;56.832;60.658;2023-03-25T14:40:48;96666.53;;;13.11;46.54
42727;BME280;28372;56.832;60.658;2023-03-25T14:43:38;96666.69;;;13.03;46.43
42727;BME280;28372;56.832;60.658;2023-03-25T14:48:41;96669.81;;;13.02;45.72
42727;BME280;28372;56.832;60.658;2023-03-25T14:54:02;96679.47;;;13.03;45.57
42727;BME280;28372;56.832;60.658;2023-03-25T14:56:34;96681.50;;;12.99;46.22
42727;BME280;28372;56.832;60.658;2023-03-25T14:59:11;96684.22;;;12.99;45.17
42727;BME280;28372;56.832;60.658;2023-03-25T15:01:40;96683.59;;;12.88;46.76
42727;BME280;28372;56.832;60.658;2023-03-25T15:04:09;96683.28;;;12.85;46.51
42727;BME280;28372;56.832;60.658;2023-03-25T15:06:39;96689.88;;;12.84;45.84
42727;BME280;28372;56.832;60.658;2023-03-25T15:09:07;96696.84;;;12.85;45.26
42727;BME280;28372;56.832;60.658;2023-03-25T15:11:43;96697.00;;;12.75;46.69
42727;BME280;28372;56.832;60.658;2023-03-25T15:14:15;96696.59;;;12.76;46.16
42727;BME280;28372;56.832;60.658;2023-03-25T15:19:18;96693.06;;;12.79;46.03
42727;BME280;28372;56.832;60.658;2023-03-25T15:22:21;96698.50;;;12.79;45.81
42727;BME280;28372;56.832;60.658;2023-03-25T15:24:46;96699.72;;;12.75;45.04
42727;BME280;28372;56.832;60.658;2023-03-25T15:53:33;96722.94;;;12.25;47.41
42727;BME280;28372;56.832;60.658;2023-03-25T15:56:09;96726.72;;;12.31;46.52
42727;BME280;28372;56.832;60.658;2023-03-25T15:58:42;96740.34;;;12.27;46.98
42727;BME280;28372;56.832;60.658;2023-03-25T16:04:34;96746.44;;;12.31;46.38
42727;BME280;28372;56.832;60.658;2023-03-25T16:06:40;96744.53;;;12.32;46.75
42727;BME280;28372;56.832;60.658;2023-03-25T16:09:18;96746.56;;;12.24;47.35
42727;BME280;28372;56.832;60.658;2023-03-25T16:11:46;96739.53;;;12.30;43.71
42727;BME280;28372;56.832;60.658;2023-03-25T16:14:15;96740.66;;;12.33;42.95
42727;BME280;28372;56.832;60.658;2023-03-25T16:16:52;96740.66;;;12.33;42.98